Wetterdaten: aktuell Freitag, 20.07.2018 15:55
Datum Zeit Temp. A. Feuchte A. Luftdruck Regen Wind Taupunkt Windchill Windben
20.07.2018 15:55 31,1 C 29 % 1011,9 hPa 0,0 l/m 5,2 km/h (1 Bft) 10,9 C 31,1 C 12,9 km/h (3 Bft)
20.07.2018 15:50 31,0 C 25 % 1012,0 hPa 0,0 l/m 8,6 km/h (2 Bft) 8,6 C 30,9 C 16,1 km/h (3 Bft)
20.07.2018 15:45 30,4 C 26 % 1012,1 hPa 0,0 l/m 7,0 km/h (2 Bft) 8,7 C 30,4 C 12,9 km/h (3 Bft)
20.07.2018 15:40 29,8 C 28 % 1012,2 hPa 0,0 l/m 3,0 km/h (1 Bft) 9,3 C 29,8 C 6,4 km/h (2 Bft)
20.07.2018 15:35 29,4 C 26 % 1012,2 hPa 0,0 l/m 7,0 km/h (2 Bft) 7,9 C 29,3 C 14,5 km/h (3 Bft)
20.07.2018 15:30 29,4 C 29 % 1012,3 hPa 0,0 l/m 1,5 km/h (1 Bft) 9,5 C 29,4 C 4,8 km/h (1 Bft)
20.07.2018 15:25 29,2 C 27 % 1012,3 hPa 0,0 l/m 5,1 km/h (1 Bft) 8,3 C 29,2 C 12,9 km/h (3 Bft)
20.07.2018 15:20 29,1 C 28 % 1012,3 hPa 0,0 l/m 7,2 km/h (2 Bft) 8,7 C 29,0 C 14,5 km/h (3 Bft)
20.07.2018 15:15 29,2 C 28 % 1012,3 hPa 0,0 l/m 5,9 km/h (2 Bft) 8,8 C 29,2 C 12,9 km/h (3 Bft)
20.07.2018 15:10 29,4 C 28 % 1012,3 hPa 0,0 l/m 6,1 km/h (2 Bft) 9,0 C 29,4 C 14,5 km/h (3 Bft)
20.07.2018 15:05 29,8 C 28 % 1012,5 hPa 0,0 l/m 6,6 km/h (2 Bft) 9,3 C 29,8 C 14,5 km/h (3 Bft)
20.07.2018 15:00 30,4 C 27 % 1012,5 hPa 0,0 l/m 6,8 km/h (2 Bft) 9,3 C 30,4 C 14,5 km/h (3 Bft)
20.07.2018 14:55 30,2 C 29 % 1012,6 hPa 0,0 l/m 3,6 km/h (1 Bft) 10,2 C 30,2 C 8,0 km/h (2 Bft)
20.07.2018 14:50 29,6 C 29 % 1012,7 hPa 0,0 l/m 4,4 km/h (1 Bft) 9,7 C 29,6 C 12,9 km/h (3 Bft)
20.07.2018 14:45 29,0 C 28 % 1012,8 hPa 0,0 l/m 2,8 km/h (1 Bft) 8,6 C 29,0 C 6,4 km/h (2 Bft)
20.07.2018 14:40 28,6 C 29 % 1012,9 hPa 0,0 l/m 3,7 km/h (1 Bft) 8,8 C 28,6 C 11,3 km/h (2 Bft)
20.07.2018 14:35 28,2 C 33 % 1012,8 hPa 0,0 l/m 1,7 km/h (1 Bft) 10,4 C 28,2 C 4,8 km/h (1 Bft)
20.07.2018 14:30 28,1 C 35 % 1012,9 hPa 0,0 l/m 1,4 km/h (1 Bft) 11,2 C 28,1 C 3,2 km/h (1 Bft)
20.07.2018 14:25 27,9 C 29 % 1012,8 hPa 0,0 l/m 3,5 km/h (1 Bft) 8,2 C 27,9 C 8,0 km/h (2 Bft)
20.07.2018 14:20 27,8 C 28 % 1012,9 hPa 0,0 l/m 3,7 km/h (1 Bft) 7,6 C 27,8 C 6,4 km/h (2 Bft)
20.07.2018 14:15 27,7 C 30 % 1012,9 hPa 0,0 l/m 5,4 km/h (1 Bft) 8,5 C 27,7 C 11,3 km/h (2 Bft)
_ Min-Zeit 05:40 13:10 15:55 - 00:20 13:10 05:40 00:20
Minimum _ 11,8 C 23 % 1011,9 hPa - 0,0 km/h (0 Bft) 6,7 C 11,8 C 0,0 km/h (0 Bft)
_ Max-Zeit 15:55 05:25 00:55 00:00 15:50 09:30 15:55 12:05
Maximum _ 31,1 C 74 % 1016,1 hPa 0,0 l/m 8,6 km/h
N (2 Bft)
12,6 C 31,1 C 16,1 km/h
N (3 Bft)
Durchschnitt _ 20,0 C 53 % 1014,6 hPa #0,0 l/m 3,0 km/h (1 Bft) 8,9 C 20,0 C 6,4 km/h (2 Bft)